sensor_id;sensor_type;location;lat;lon;timestamp;P1;durP1;ratioP1;P2;durP2;ratioP2
48207;SDS011;33997;53.278;9.708;2022-12-17T00:01:17;50.15;;;25.40;;
48207;SDS011;33997;53.278;9.708;2022-12-17T00:04:01;53.55;;;26.83;;
48207;SDS011;33997;53.278;9.708;2022-12-17T00:06:46;59.38;;;26.73;;
48207;SDS011;33997;53.278;9.708;2022-12-17T00:09:30;51.85;;;25.13;;
48207;SDS011;33997;53.278;9.708;2022-12-17T00:12:14;63.65;;;27.25;;
48207;SDS011;33997;53.278;9.708;2022-12-17T00:14:58;53.53;;;26.23;;
48207;SDS011;33997;53.278;9.708;2022-12-17T00:17:42;56.95;;;26.42;;
48207;SDS011;33997;53.278;9.708;2022-12-17T00:20:25;56.30;;;26.63;;
48207;SDS011;33997;53.278;9.708;2022-12-17T00:23:09;53.70;;;25.88;;
48207;SDS011;33997;53.278;9.708;2022-12-17T00:25:55;59.85;;;27.65;;
48207;SDS011;33997;53.278;9.708;2022-12-17T00:28:39;57.72;;;25.83;;
48207;SDS011;33997;53.278;9.708;2022-12-17T00:31:25;53.92;;;27.58;;
48207;SDS011;33997;53.278;9.708;2022-12-17T00:34:10;62.08;;;28.58;;
48207;SDS011;33997;53.278;9.708;2022-12-17T00:36:53;63.03;;;29.77;;
48207;SDS011;33997;53.278;9.708;2022-12-17T00:39:37;63.42;;;29.13;;
48207;SDS011;33997;53.278;9.708;2022-12-17T00:42:22;68.25;;;31.05;;
48207;SDS011;33997;53.278;9.708;2022-12-17T00:45:06;72.47;;;31.45;;
48207;SDS011;33997;53.278;9.708;2022-12-17T00:47:50;72.25;;;32.45;;
48207;SDS011;33997;53.278;9.708;2022-12-17T00:50:34;77.25;;;33.88;;
48207;SDS011;33997;53.278;9.708;2022-12-17T00:53:18;71.35;;;31.70;;
48207;SDS011;33997;53.278;9.708;2022-12-17T00:56:02;68.30;;;30.38;;
48207;SDS011;33997;53.278;9.708;2022-12-17T00:58:46;64.90;;;31.77;;
48207;SDS011;33997;53.278;9.708;2022-12-17T01:01:30;65.20;;;31.85;;
48207;SDS011;33997;53.278;9.708;2022-12-17T01:04:14;74.18;;;32.33;;
48207;SDS011;33997;53.278;9.708;2022-12-17T01:06:58;66.63;;;31.52;;
48207;SDS011;33997;53.278;9.708;2022-12-17T01:09:42;68.65;;;31.20;;
48207;SDS011;33997;53.278;9.708;2022-12-17T01:12:26;69.22;;;31.90;;
48207;SDS011;33997;53.278;9.708;2022-12-17T01:15:10;68.63;;;30.58;;
48207;SDS011;33997;53.278;9.708;2022-12-17T01:17:54;74.18;;;30.90;;
48207;SDS011;33997;53.278;9.708;2022-12-17T01:20:38;68.05;;;30.83;;
48207;SDS011;33997;53.278;9.708;2022-12-17T01:23:22;66.40;;;29.25;;
48207;SDS011;33997;53.278;9.708;2022-12-17T01:26:06;66.30;;;29.35;;
48207;SDS011;33997;53.278;9.708;2022-12-17T01:28:51;60.53;;;28.52;;
48207;SDS011;33997;53.278;9.708;2022-12-17T01:31:35;72.13;;;29.25;;
48207;SDS011;33997;53.278;9.708;2022-12-17T01:34:19;68.03;;;31.25;;
48207;SDS011;33997;53.278;9.708;2022-12-17T01:37:03;72.60;;;30.92;;
48207;SDS011;33997;53.278;9.708;2022-12-17T01:39:47;70.53;;;32.92;;
48207;SDS011;33997;53.278;9.708;2022-12-17T01:42:38;64.40;;;28.55;;
48207;SDS011;33997;53.278;9.708;2022-12-17T01:45:23;71.00;;;30.45;;
48207;SDS011;33997;53.278;9.708;2022-12-17T01:48:12;70.88;;;28.40;;
48207;SDS011;33997;53.278;9.708;2022-12-17T01:50:58;69.60;;;29.48;;
48207;SDS011;33997;53.278;9.708;2022-12-17T01:53:48;65.22;;;29.33;;
48207;SDS011;33997;53.278;9.708;2022-12-17T01:56:36;66.20;;;28.73;;
48207;SDS011;33997;53.278;9.708;2022-12-17T01:59:24;67.90;;;29.23;;
48207;SDS011;33997;53.278;9.708;2022-12-17T02:02:21;64.55;;;29.38;;
48207;SDS011;33997;53.278;9.708;2022-12-17T02:05:05;62.40;;;28.05;;
48207;SDS011;33997;53.278;9.708;2022-12-17T02:10:50;65.13;;;28.17;;
48207;SDS011;33997;53.278;9.708;2022-12-17T02:14:10;69.88;;;28.73;;
48207;SDS011;33997;53.278;9.708;2022-12-17T02:16:58;73.78;;;27.65;;
48207;SDS011;33997;53.278;9.708;2022-12-17T02:20:03;59.80;;;28.15;;
48207;SDS011;33997;53.278;9.708;2022-12-17T02:26:01;61.67;;;26.40;;
48207;SDS011;33997;53.278;9.708;2022-12-17T02:29:01;69.53;;;28.90;;
48207;SDS011;33997;53.278;9.708;2022-12-17T02:31:47;65.95;;;28.63;;
48207;SDS011;33997;53.278;9.708;2022-12-17T02:34:41;67.47;;;29.13;;
48207;SDS011;33997;53.278;9.708;2022-12-17T02:37:27;68.78;;;28.48;;
48207;SDS011;33997;53.278;9.708;2022-12-17T02:40:11;68.05;;;27.67;;
48207;SDS011;33997;53.278;9.708;2022-12-17T02:42:55;63.60;;;28.02;;
48207;SDS011;33997;53.278;9.708;2022-12-17T02:45:40;72.30;;;27.33;;
48207;SDS011;33997;53.278;9.708;2022-12-17T02:48:25;63.72;;;29.90;;
48207;SDS011;33997;53.278;9.708;2022-12-17T02:51:10;68.63;;;27.95;;
48207;SDS011;33997;53.278;9.708;2022-12-17T02:53:54;68.50;;;28.15;;
48207;SDS011;33997;53.278;9.708;2022-12-17T02:56:38;68.75;;;29.58;;
48207;SDS011;33997;53.278;9.708;2022-12-17T02:59:22;74.57;;;28.10;;
48207;SDS011;33997;53.278;9.708;2022-12-17T03:02:06;63.78;;;27.40;;
48207;SDS011;33997;53.278;9.708;2022-12-17T03:04:50;69.18;;;27.05;;
48207;SDS011;33997;53.278;9.708;2022-12-17T03:07:34;61.38;;;26.15;;
48207;SDS011;33997;53.278;9.708;2022-12-17T03:10:18;58.72;;;26.08;;
48207;SDS011;33997;53.278;9.708;2022-12-17T03:13:02;67.65;;;27.17;;
48207;SDS011;33997;53.278;9.708;2022-12-17T03:15:46;61.03;;;25.55;;
48207;SDS011;33997;53.278;9.708;2022-12-17T03:18:30;67.10;;;26.83;;
48207;SDS011;33997;53.278;9.708;2022-12-17T03:21:14;61.35;;;26.15;;
48207;SDS011;33997;53.278;9.708;2022-12-17T03:23:58;60.83;;;26.85;;
48207;SDS011;33997;53.278;9.708;2022-12-17T03:26:42;62.55;;;26.48;;
48207;SDS011;33997;53.278;9.708;2022-12-17T03:29:26;60.60;;;25.63;;
48207;SDS011;33997;53.278;9.708;2022-12-17T03:32:10;55.97;;;25.73;;
48207;SDS011;33997;53.278;9.708;2022-12-17T03:34:54;58.00;;;26.55;;
48207;SDS011;33997;53.278;9.708;2022-12-17T03:37:38;66.25;;;26.67;;
48207;SDS011;33997;53.278;9.708;2022-12-17T03:40:23;66.90;;;26.55;;
48207;SDS011;33997;53.278;9.708;2022-12-17T03:43:07;58.78;;;25.73;;
48207;SDS011;33997;53.278;9.708;2022-12-17T03:45:54;66.10;;;25.95;;
48207;SDS011;33997;53.278;9.708;2022-12-17T03:48:39;53.78;;;23.85;;
48207;SDS011;33997;53.278;9.708;2022-12-17T03:51:23;58.85;;;25.50;;
48207;SDS011;33997;53.278;9.708;2022-12-17T03:54:08;59.30;;;25.83;;
48207;SDS011;33997;53.278;9.708;2022-12-17T03:56:52;64.80;;;25.90;;
48207;SDS011;33997;53.278;9.708;2022-12-17T03:59:36;71.97;;;25.05;;
48207;SDS011;33997;53.278;9.708;2022-12-17T04:02:20;61.38;;;25.08;;
48207;SDS011;33997;53.278;9.708;2022-12-17T04:05:04;63.28;;;24.42;;
48207;SDS011;33997;53.278;9.708;2022-12-17T04:07:48;66.35;;;24.95;;
48207;SDS011;33997;53.278;9.708;2022-12-17T04:10:32;56.90;;;24.52;;
48207;SDS011;33997;53.278;9.708;2022-12-17T04:13:17;57.42;;;24.63;;
48207;SDS011;33997;53.278;9.708;2022-12-17T04:16:01;59.67;;;24.60;;
48207;SDS011;33997;53.278;9.708;2022-12-17T04:18:45;56.60;;;26.10;;
48207;SDS011;33997;53.278;9.708;2022-12-17T04:21:29;60.17;;;24.77;;
48207;SDS011;33997;53.278;9.708;2022-12-17T04:24:13;67.68;;;27.70;;
48207;SDS011;33997;53.278;9.708;2022-12-17T04:26:57;65.50;;;24.92;;
48207;SDS011;33997;53.278;9.708;2022-12-17T04:29:41;62.42;;;25.90;;
48207;SDS011;33997;53.278;9.708;2022-12-17T04:32:25;69.88;;;25.52;;
48207;SDS011;33997;53.278;9.708;2022-12-17T04:35:09;59.35;;;26.15;;
48207;SDS011;33997;53.278;9.708;2022-12-17T04:37:53;64.25;;;25.70;;
48207;SDS011;33997;53.278;9.708;2022-12-17T04:40:37;42.10;;;21.65;;
48207;SDS011;33997;53.278;9.708;2022-12-17T04:43:21;45.05;;;21.98;;
48207;SDS011;33997;53.278;9.708;2022-12-17T04:46:05;48.05;;;21.35;;
48207;SDS011;33997;53.278;9.708;2022-12-17T04:48:49;41.63;;;20.85;;
48207;SDS011;33997;53.278;9.708;2022-12-17T04:51:33;42.47;;;20.98;;
48207;SDS011;33997;53.278;9.708;2022-12-17T04:54:17;40.58;;;19.45;;
48207;SDS011;33997;53.278;9.708;2022-12-17T04:57:02;37.90;;;19.67;;
48207;SDS011;33997;53.278;9.708;2022-12-17T04:59:46;42.75;;;20.92;;
48207;SDS011;33997;53.278;9.708;2022-12-17T05:02:30;45.38;;;20.48;;
48207;SDS011;33997;53.278;9.708;2022-12-17T05:05:14;37.33;;;20.20;;
48207;SDS011;33997;53.278;9.708;2022-12-17T05:07:58;44.45;;;20.95;;
48207;SDS011;33997;53.278;9.708;2022-12-17T05:10:42;41.30;;;20.15;;
48207;SDS011;33997;53.278;9.708;2022-12-17T05:13:26;49.83;;;21.00;;
48207;SDS011;33997;53.278;9.708;2022-12-17T05:16:10;36.35;;;19.08;;
48207;SDS011;33997;53.278;9.708;2022-12-17T05:18:55;40.97;;;21.10;;
48207;SDS011;33997;53.278;9.708;2022-12-17T05:21:39;40.88;;;21.58;;
48207;SDS011;33997;53.278;9.708;2022-12-17T05:24:23;42.47;;;21.25;;
48207;SDS011;33997;53.278;9.708;2022-12-17T05:27:07;40.17;;;20.25;;
48207;SDS011;33997;53.278;9.708;2022-12-17T05:29:51;38.55;;;19.05;;
48207;SDS011;33997;53.278;9.708;2022-12-17T05:32:35;35.78;;;19.40;;
48207;SDS011;33997;53.278;9.708;2022-12-17T05:35:19;38.22;;;20.98;;
48207;SDS011;33997;53.278;9.708;2022-12-17T05:38:04;40.53;;;19.95;;
48207;SDS011;33997;53.278;9.708;2022-12-17T05:40:50;35.65;;;19.05;;
48207;SDS011;33997;53.278;9.708;2022-12-17T05:43:39;41.10;;;19.80;;
48207;SDS011;33997;53.278;9.708;2022-12-17T05:46:23;37.47;;;20.30;;
48207;SDS011;33997;53.278;9.708;2022-12-17T05:49:06;40.33;;;19.80;;
48207;SDS011;33997;53.278;9.708;2022-12-17T05:51:51;40.17;;;20.10;;
48207;SDS011;33997;53.278;9.708;2022-12-17T05:54:35;40.75;;;20.95;;
48207;SDS011;33997;53.278;9.708;2022-12-17T05:57:19;40.97;;;20.17;;
48207;SDS011;33997;53.278;9.708;2022-12-17T06:00:03;38.78;;;18.45;;
48207;SDS011;33997;53.278;9.708;2022-12-17T06:02:47;39.42;;;20.10;;
48207;SDS011;33997;53.278;9.708;2022-12-17T06:05:38;36.78;;;19.25;;
48207;SDS011;33997;53.278;9.708;2022-12-17T06:08:22;36.70;;;20.45;;
48207;SDS011;33997;53.278;9.708;2022-12-17T06:11:07;35.72;;;19.30;;
48207;SDS011;33997;53.278;9.708;2022-12-17T06:13:50;39.53;;;19.55;;
48207;SDS011;33997;53.278;9.708;2022-12-17T06:16:35;35.63;;;18.60;;
48207;SDS011;33997;53.278;9.708;2022-12-17T06:19:19;38.42;;;20.30;;
48207;SDS011;33997;53.278;9.708;2022-12-17T06:22:03;39.55;;;19.83;;
48207;SDS011;33997;53.278;9.708;2022-12-17T06:24:47;34.88;;;19.55;;
48207;SDS011;33997;53.278;9.708;2022-12-17T06:27:31;33.78;;;18.65;;
48207;SDS011;33997;53.278;9.708;2022-12-17T06:30:15;37.13;;;19.63;;
48207;SDS011;33997;53.278;9.708;2022-12-17T06:33:05;41.80;;;21.17;;
48207;SDS011;33997;53.278;9.708;2022-12-17T06:35:52;44.30;;;21.02;;
48207;SDS011;33997;53.278;9.708;2022-12-17T06:38:38;42.88;;;20.80;;
48207;SDS011;33997;53.278;9.708;2022-12-17T06:41:21;36.70;;;20.33;;
48207;SDS011;33997;53.278;9.708;2022-12-17T06:44:06;40.90;;;19.52;;
48207;SDS011;33997;53.278;9.708;2022-12-17T06:46:50;42.60;;;20.85;;
48207;SDS011;33997;53.278;9.708;2022-12-17T06:49:34;42.60;;;20.20;;
48207;SDS011;33997;53.278;9.708;2022-12-17T06:52:18;40.58;;;21.52;;
48207;SDS011;33997;53.278;9.708;2022-12-17T06:55:02;46.40;;;20.58;;
48207;SDS011;33997;53.278;9.708;2022-12-17T06:57:46;45.95;;;22.02;;
48207;SDS011;33997;53.278;9.708;2022-12-17T07:00:38;48.70;;;20.58;;
48207;SDS011;33997;53.278;9.708;2022-12-17T07:03:22;40.38;;;20.27;;
48207;SDS011;33997;53.278;9.708;2022-12-17T07:06:07;40.97;;;22.25;;
48207;SDS011;33997;53.278;9.708;2022-12-17T07:08:50;37.97;;;20.35;;
48207;SDS011;33997;53.278;9.708;2022-12-17T07:11:34;40.45;;;21.40;;
48207;SDS011;33997;53.278;9.708;2022-12-17T07:14:18;42.03;;;21.48;;
48207;SDS011;33997;53.278;9.708;2022-12-17T07:17:02;40.13;;;20.02;;
48207;SDS011;33997;53.278;9.708;2022-12-17T07:19:46;46.45;;;21.20;;
48207;SDS011;33997;53.278;9.708;2022-12-17T07:22:30;39.95;;;20.13;;
48207;SDS011;33997;53.278;9.708;2022-12-17T07:25:14;46.10;;;22.85;;
48207;SDS011;33997;53.278;9.708;2022-12-17T07:27:58;40.30;;;21.55;;
48207;SDS011;33997;53.278;9.708;2022-12-17T07:30:42;40.22;;;21.40;;
48207;SDS011;33997;53.278;9.708;2022-12-17T07:33:26;40.30;;;20.60;;
48207;SDS011;33997;53.278;9.708;2022-12-17T07:36:10;44.17;;;21.67;;
48207;SDS011;33997;53.278;9.708;2022-12-17T07:38:54;39.83;;;21.55;;
48207;SDS011;33997;53.278;9.708;2022-12-17T07:41:38;44.70;;;20.98;;
48207;SDS011;33997;53.278;9.708;2022-12-17T07:44:23;42.47;;;19.77;;
48207;SDS011;33997;53.278;9.708;2022-12-17T07:47:07;40.05;;;21.10;;
48207;SDS011;33997;53.278;9.708;2022-12-17T07:49:51;40.50;;;20.77;;
48207;SDS011;33997;53.278;9.708;2022-12-17T07:52:35;37.25;;;20.08;;
48207;SDS011;33997;53.278;9.708;2022-12-17T07:55:19;42.28;;;21.27;;
48207;SDS011;33997;53.278;9.708;2022-12-17T07:58:04;41.28;;;22.50;;
48207;SDS011;33997;53.278;9.708;2022-12-17T08:00:51;44.83;;;23.05;;
48207;SDS011;33997;53.278;9.708;2022-12-17T08:03:35;39.90;;;22.20;;
48207;SDS011;33997;53.278;9.708;2022-12-17T08:06:19;51.03;;;24.25;;
48207;SDS011;33997;53.278;9.708;2022-12-17T08:09:03;43.53;;;22.58;;
48207;SDS011;33997;53.278;9.708;2022-12-17T08:11:47;56.45;;;22.58;;
48207;SDS011;33997;53.278;9.708;2022-12-17T08:14:31;45.10;;;23.40;;
48207;SDS011;33997;53.278;9.708;2022-12-17T08:17:15;41.90;;;22.92;;
48207;SDS011;33997;53.278;9.708;2022-12-17T08:19:59;48.03;;;23.52;;
48207;SDS011;33997;53.278;9.708;2022-12-17T08:22:43;45.85;;;22.80;;
48207;SDS011;33997;53.278;9.708;2022-12-17T08:25:27;45.03;;;24.20;;
48207;SDS011;33997;53.278;9.708;2022-12-17T08:28:12;47.50;;;24.08;;
48207;SDS011;33997;53.278;9.708;2022-12-17T08:30:56;50.42;;;23.27;;
48207;SDS011;33997;53.278;9.708;2022-12-17T08:33:40;44.85;;;24.33;;
48207;SDS011;33997;53.278;9.708;2022-12-17T08:36:24;46.22;;;24.67;;
48207;SDS011;33997;53.278;9.708;2022-12-17T08:39:08;58.30;;;25.95;;
48207;SDS011;33997;53.278;9.708;2022-12-17T08:41:52;52.47;;;26.80;;
48207;SDS011;33997;53.278;9.708;2022-12-17T08:44:36;52.97;;;24.45;;
48207;SDS011;33997;53.278;9.708;2022-12-17T08:47:21;51.35;;;25.05;;
48207;SDS011;33997;53.278;9.708;2022-12-17T08:50:05;42.78;;;24.33;;
48207;SDS011;33997;53.278;9.708;2022-12-17T08:52:57;47.50;;;25.92;;
48207;SDS011;33997;53.278;9.708;2022-12-17T08:55:42;58.15;;;28.20;;
48207;SDS011;33997;53.278;9.708;2022-12-17T08:58:26;68.05;;;32.65;;
48207;SDS011;33997;53.278;9.708;2022-12-17T09:01:10;75.38;;;35.83;;
48207;SDS011;33997;53.278;9.708;2022-12-17T09:03:54;82.82;;;38.42;;
48207;SDS011;33997;53.278;9.708;2022-12-17T09:06:38;67.93;;;33.70;;
48207;SDS011;33997;53.278;9.708;2022-12-17T09:09:22;97.80;;;43.13;;
48207;SDS011;33997;53.278;9.708;2022-12-17T09:12:06;66.25;;;34.75;;
48207;SDS011;33997;53.278;9.708;2022-12-17T09:14:50;57.20;;;29.10;;
48207;SDS011;33997;53.278;9.708;2022-12-17T09:17:34;54.67;;;29.27;;
48207;SDS011;33997;53.278;9.708;2022-12-17T09:20:18;54.00;;;28.77;;
48207;SDS011;33997;53.278;9.708;2022-12-17T09:23:02;52.92;;;27.77;;
48207;SDS011;33997;53.278;9.708;2022-12-17T09:25:53;50.58;;;27.00;;
48207;SDS011;33997;53.278;9.708;2022-12-17T09:28:38;49.53;;;26.95;;
48207;SDS011;33997;53.278;9.708;2022-12-17T09:31:22;50.80;;;27.65;;
48207;SDS011;33997;53.278;9.708;2022-12-17T09:34:06;56.88;;;28.25;;
48207;SDS011;33997;53.278;9.708;2022-12-17T09:36:50;53.70;;;27.92;;
48207;SDS011;33997;53.278;9.708;2022-12-17T09:39:48;45.72;;;25.67;;
48207;SDS011;33997;53.278;9.708;2022-12-17T09:45:30;51.38;;;28.02;;
48207;SDS011;33997;53.278;9.708;2022-12-17T09:51:21;51.55;;;29.35;;
48207;SDS011;33997;53.278;9.708;2022-12-17T09:57:15;51.00;;;27.02;;
48207;SDS011;33997;53.278;9.708;2022-12-17T10:00:08;52.03;;;28.83;;
48207;SDS011;33997;53.278;9.708;2022-12-17T10:03:01;56.22;;;28.17;;
48207;SDS011;33997;53.278;9.708;2022-12-17T10:05:46;53.90;;;28.17;;
48207;SDS011;33997;53.278;9.708;2022-12-17T10:08:31;63.08;;;31.20;;
48207;SDS011;33997;53.278;9.708;2022-12-17T10:11:22;51.85;;;29.02;;
48207;SDS011;33997;53.278;9.708;2022-12-17T10:14:16;54.05;;;30.20;;
48207;SDS011;33997;53.278;9.708;2022-12-17T10:17:08;55.00;;;29.40;;
48207;SDS011;33997;53.278;9.708;2022-12-17T10:20:10;87.88;;;38.47;;
48207;SDS011;33997;53.278;9.708;2022-12-17T10:23:05;60.70;;;31.58;;
48207;SDS011;33997;53.278;9.708;2022-12-17T10:25:54;59.55;;;30.83;;
48207;SDS011;33997;53.278;9.708;2022-12-17T10:28:39;54.03;;;29.63;;
48207;SDS011;33997;53.278;9.708;2022-12-17T10:31:25;56.08;;;30.63;;
48207;SDS011;33997;53.278;9.708;2022-12-17T10:34:16;55.88;;;31.05;;
48207;SDS011;33997;53.278;9.708;2022-12-17T10:37:02;53.45;;;29.90;;
48207;SDS011;33997;53.278;9.708;2022-12-17T10:39:55;51.60;;;30.25;;
48207;SDS011;33997;53.278;9.708;2022-12-17T10:42:40;58.25;;;31.95;;
48207;SDS011;33997;53.278;9.708;2022-12-17T10:45:30;63.50;;;30.67;;
48207;SDS011;33997;53.278;9.708;2022-12-17T10:48:17;58.08;;;33.25;;
48207;SDS011;33997;53.278;9.708;2022-12-17T10:54:20;66.88;;;34.72;;
48207;SDS011;33997;53.278;9.708;2022-12-17T10:57:22;65.10;;;33.78;;
48207;SDS011;33997;53.278;9.708;2022-12-17T11:03:01;62.13;;;32.97;;
48207;SDS011;33997;53.278;9.708;2022-12-17T11:05:46;66.18;;;34.63;;
48207;SDS011;33997;53.278;9.708;2022-12-17T11:08:35;69.80;;;33.00;;
48207;SDS011;33997;53.278;9.708;2022-12-17T11:11:20;66.60;;;33.67;;
48207;SDS011;33997;53.278;9.708;2022-12-17T11:14:05;67.00;;;34.15;;
48207;SDS011;33997;53.278;9.708;2022-12-17T11:16:53;71.97;;;36.25;;
48207;SDS011;33997;53.278;9.708;2022-12-17T11:22:42;65.70;;;33.63;;
48207;SDS011;33997;53.278;9.708;2022-12-17T11:28:37;53.78;;;31.50;;
48207;SDS011;33997;53.278;9.708;2022-12-17T11:37:23;54.42;;;26.08;;
48207;SDS011;33997;53.278;9.708;2022-12-17T11:49:58;41.22;;;25.13;;
48207;SDS011;33997;53.278;9.708;2022-12-17T11:55:39;42.60;;;23.65;;
48207;SDS011;33997;53.278;9.708;2022-12-17T11:58:41;39.50;;;24.42;;
48207;SDS011;33997;53.278;9.708;2022-12-17T12:01:38;36.92;;;22.33;;
48207;SDS011;33997;53.278;9.708;2022-12-17T12:04:37;36.25;;;23.17;;
48207;SDS011;33997;53.278;9.708;2022-12-17T12:07:41;38.00;;;21.77;;
48207;SDS011;33997;53.278;9.708;2022-12-17T12:13:26;32.65;;;20.42;;
48207;SDS011;33997;53.278;9.708;2022-12-17T12:16:21;29.95;;;19.02;;
48207;SDS011;33997;53.278;9.708;2022-12-17T12:22:47;31.42;;;18.00;;
48207;SDS011;33997;53.278;9.708;2022-12-17T12:25:52;28.73;;;17.50;;
48207;SDS011;33997;53.278;9.708;2022-12-17T12:29:05;28.13;;;17.23;;
48207;SDS011;33997;53.278;9.708;2022-12-17T12:32:27;23.92;;;15.80;;
48207;SDS011;33997;53.278;9.708;2022-12-17T12:35:28;24.52;;;15.35;;
48207;SDS011;33997;53.278;9.708;2022-12-17T12:38:20;31.77;;;17.15;;
48207;SDS011;33997;53.278;9.708;2022-12-17T12:41:13;38.13;;;20.63;;
48207;SDS011;33997;53.278;9.708;2022-12-17T12:44:01;30.00;;;20.05;;
48207;SDS011;33997;53.278;9.708;2022-12-17T12:46:57;28.65;;;17.27;;
48207;SDS011;33997;53.278;9.708;2022-12-17T12:49:50;23.23;;;15.65;;
48207;SDS011;33997;53.278;9.708;2022-12-17T12:52:41;28.60;;;15.57;;
48207;SDS011;33997;53.278;9.708;2022-12-17T12:55:38;22.20;;;14.98;;
48207;SDS011;33997;53.278;9.708;2022-12-17T12:58:28;29.38;;;16.45;;
48207;SDS011;33997;53.278;9.708;2022-12-17T13:01:14;26.45;;;16.35;;
48207;SDS011;33997;53.278;9.708;2022-12-17T13:03:59;51.53;;;34.05;;
48207;SDS011;33997;53.278;9.708;2022-12-17T13:09:21;26.05;;;16.52;;
48207;SDS011;33997;53.278;9.708;2022-12-17T13:12:08;30.63;;;15.98;;
48207;SDS011;33997;53.278;9.708;2022-12-17T13:14:49;27.50;;;16.13;;
48207;SDS011;33997;53.278;9.708;2022-12-17T13:17:22;28.70;;;15.88;;
48207;SDS011;33997;53.278;9.708;2022-12-17T13:20:24;28.30;;;16.23;;
48207;SDS011;33997;53.278;9.708;2022-12-17T13:25:42;28.05;;;16.08;;
48207;SDS011;33997;53.278;9.708;2022-12-17T13:28:24;31.25;;;16.30;;
48207;SDS011;33997;53.278;9.708;2022-12-17T13:30:59;43.63;;;27.20;;
48207;SDS011;33997;53.278;9.708;2022-12-17T13:34:13;32.38;;;17.65;;
48207;SDS011;33997;53.278;9.708;2022-12-17T13:36:16;28.10;;;16.90;;
48207;SDS011;33997;53.278;9.708;2022-12-17T13:39:02;26.93;;;15.07;;
48207;SDS011;33997;53.278;9.708;2022-12-17T13:41:34;51.75;;;32.38;;
48207;SDS011;33997;53.278;9.708;2022-12-17T13:44:16;30.63;;;16.70;;
48207;SDS011;33997;53.278;9.708;2022-12-17T13:46:46;32.58;;;18.23;;
48207;SDS011;33997;53.278;9.708;2022-12-17T13:51:46;27.58;;;15.20;;
48207;SDS011;33997;53.278;9.708;2022-12-17T13:54:15;32.35;;;19.95;;
48207;SDS011;33997;53.278;9.708;2022-12-17T13:56:43;55.28;;;32.60;;
48207;SDS011;33997;53.278;9.708;2022-12-17T13:59:20;31.95;;;19.67;;
48207;SDS011;33997;53.278;9.708;2022-12-17T14:01:49;46.72;;;28.90;;
48207;SDS011;33997;53.278;9.708;2022-12-17T14:04:21;43.65;;;28.67;;
48207;SDS011;33997;53.278;9.708;2022-12-17T14:06:48;32.03;;;20.30;;
48207;SDS011;33997;53.278;9.708;2022-12-17T14:09:15;27.63;;;16.92;;
48207;SDS011;33997;53.278;9.708;2022-12-17T14:11:42;31.83;;;19.20;;
48207;SDS011;33997;53.278;9.708;2022-12-17T14:14:33;28.63;;;15.93;;
48207;SDS011;33997;53.278;9.708;2022-12-17T14:17:01;27.05;;;16.58;;
48207;SDS011;33997;53.278;9.708;2022-12-17T14:19:27;28.88;;;15.73;;
48207;SDS011;33997;53.278;9.708;2022-12-17T14:21:54;30.13;;;20.90;;
48207;SDS011;33997;53.278;9.708;2022-12-17T14:24:21;35.22;;;16.63;;
48207;SDS011;33997;53.278;9.708;2022-12-17T14:26:52;29.77;;;18.42;;
48207;SDS011;33997;53.278;9.708;2022-12-17T14:29:23;28.33;;;15.63;;
48207;SDS011;33997;53.278;9.708;2022-12-17T14:32:01;23.92;;;14.82;;
48207;SDS011;33997;53.278;9.708;2022-12-17T14:34:45;24.95;;;15.32;;
48207;SDS011;33997;53.278;9.708;2022-12-17T14:37:12;53.85;;;30.48;;
48207;SDS011;33997;53.278;9.708;2022-12-17T14:39:42;34.15;;;23.27;;
48207;SDS011;33997;53.278;9.708;2022-12-17T14:42:14;38.25;;;25.00;;
48207;SDS011;33997;53.278;9.708;2022-12-17T14:47:34;41.88;;;21.65;;
48207;SDS011;33997;53.278;9.708;2022-12-17T14:50:04;43.85;;;25.20;;
48207;SDS011;33997;53.278;9.708;2022-12-17T14:52:43;42.22;;;24.38;;
48207;SDS011;33997;53.278;9.708;2022-12-17T14:55:24;37.95;;;23.65;;
48207;SDS011;33997;53.278;9.708;2022-12-17T15:00:39;27.92;;;16.08;;
48207;SDS011;33997;53.278;9.708;2022-12-17T15:05:47;33.25;;;19.00;;
48207;SDS011;33997;53.278;9.708;2022-12-17T15:08:29;31.05;;;15.55;;
48207;SDS011;33997;53.278;9.708;2022-12-17T15:10:57;41.30;;;20.80;;
48207;SDS011;33997;53.278;9.708;2022-12-17T15:13:23;39.28;;;19.73;;
48207;SDS011;33997;53.278;9.708;2022-12-17T15:15:48;33.78;;;17.83;;
48207;SDS011;33997;53.278;9.708;2022-12-17T15:18:14;29.95;;;16.08;;
48207;SDS011;33997;53.278;9.708;2022-12-17T15:20:39;32.35;;;17.35;;
48207;SDS011;33997;53.278;9.708;2022-12-17T15:23:07;30.38;;;17.80;;
48207;SDS011;33997;53.278;9.708;2022-12-17T15:25:38;32.35;;;18.35;;
48207;SDS011;33997;53.278;9.708;2022-12-17T15:28:04;34.80;;;19.05;;
48207;SDS011;33997;53.278;9.708;2022-12-17T15:30:29;30.13;;;17.67;;
48207;SDS011;33997;53.278;9.708;2022-12-17T15:32:55;32.22;;;18.38;;
48207;SDS011;33997;53.278;9.708;2022-12-17T15:35:21;35.80;;;20.23;;
48207;SDS011;33997;53.278;9.708;2022-12-17T15:37:46;31.02;;;17.58;;
48207;SDS011;33997;53.278;9.708;2022-12-17T15:40:12;33.50;;;18.63;;
48207;SDS011;33997;53.278;9.708;2022-12-17T15:42:37;32.05;;;18.83;;
48207;SDS011;33997;53.278;9.708;2022-12-17T15:45:22;30.15;;;17.80;;
48207;SDS011;33997;53.278;9.708;2022-12-17T15:47:47;36.00;;;19.55;;
48207;SDS011;33997;53.278;9.708;2022-12-17T15:50:13;35.33;;;21.40;;
48207;SDS011;33997;53.278;9.708;2022-12-17T15:52:38;32.40;;;19.15;;
48207;SDS011;33997;53.278;9.708;2022-12-17T15:55:04;39.88;;;20.55;;
48207;SDS011;33997;53.278;9.708;2022-12-17T15:57:29;36.80;;;20.73;;
48207;SDS011;33997;53.278;9.708;2022-12-17T15:59:55;50.72;;;25.45;;
48207;SDS011;33997;53.278;9.708;2022-12-17T16:02:20;36.30;;;21.52;;
48207;SDS011;33997;53.278;9.708;2022-12-17T16:04:46;40.08;;;20.27;;
48207;SDS011;33997;53.278;9.708;2022-12-17T16:07:12;32.92;;;18.75;;
48207;SDS011;33997;53.278;9.708;2022-12-17T16:09:37;36.33;;;20.35;;
48207;SDS011;33997;53.278;9.708;2022-12-17T16:12:03;38.03;;;20.88;;
48207;SDS011;33997;53.278;9.708;2022-12-17T16:14:28;36.55;;;20.65;;
48207;SDS011;33997;53.278;9.708;2022-12-17T16:16:54;34.88;;;21.48;;
48207;SDS011;33997;53.278;9.708;2022-12-17T16:19:19;39.30;;;20.85;;
48207;SDS011;33997;53.278;9.708;2022-12-17T16:21:45;36.50;;;20.48;;
48207;SDS011;33997;53.278;9.708;2022-12-17T16:24:10;40.17;;;21.55;;
48207;SDS011;33997;53.278;9.708;2022-12-17T16:26:36;38.67;;;21.58;;
48207;SDS011;33997;53.278;9.708;2022-12-17T16:29:02;45.10;;;22.85;;
48207;SDS011;33997;53.278;9.708;2022-12-17T16:31:27;38.47;;;20.85;;
48207;SDS011;33997;53.278;9.708;2022-12-17T16:33:53;35.15;;;20.17;;
48207;SDS011;33997;53.278;9.708;2022-12-17T16:36:19;35.63;;;19.85;;
48207;SDS011;33997;53.278;9.708;2022-12-17T16:38:46;32.75;;;18.35;;
48207;SDS011;33997;53.278;9.708;2022-12-17T16:41:14;32.25;;;19.30;;
48207;SDS011;33997;53.278;9.708;2022-12-17T16:43:40;35.10;;;18.38;;
48207;SDS011;33997;53.278;9.708;2022-12-17T16:46:25;28.95;;;16.30;;
48207;SDS011;33997;53.278;9.708;2022-12-17T16:48:54;31.85;;;18.02;;
48207;SDS011;33997;53.278;9.708;2022-12-17T16:51:21;31.05;;;18.30;;
48207;SDS011;33997;53.278;9.708;2022-12-17T16:53:49;34.25;;;19.58;;
48207;SDS011;33997;53.278;9.708;2022-12-17T16:56:15;37.90;;;20.45;;
48207;SDS011;33997;53.278;9.708;2022-12-17T16:58:42;30.52;;;18.10;;